createdAt,value
2019-05-20T00:01:10.444Z,16.88
2019-05-20T00:03:41.295Z,16.80
2019-05-20T00:06:12.219Z,16.57
2019-05-20T00:08:42.893Z,16.48
2019-05-20T00:11:13.576Z,16.55
2019-05-20T00:13:44.350Z,16.66
2019-05-20T00:16:15.364Z,16.77
2019-05-20T00:18:46.414Z,16.84
2019-05-20T00:21:18.184Z,16.83
2019-05-20T00:23:48.849Z,16.86
2019-05-20T00:26:19.837Z,16.85
2019-05-20T00:28:50.514Z,16.84
2019-05-20T00:31:21.271Z,16.92
2019-05-20T00:33:52.345Z,16.77
2019-05-20T00:36:23.147Z,16.68
2019-05-20T00:39:11.750Z,16.60
2019-05-20T00:41:43.169Z,16.74
2019-05-20T00:44:13.872Z,16.60
2019-05-20T00:46:45.598Z,16.63
2019-05-20T00:49:16.577Z,16.65
2019-05-20T00:51:47.326Z,16.60
2019-05-20T00:54:18.514Z,16.77
2019-05-20T00:56:53.128Z,16.79
2019-05-20T00:59:23.828Z,16.69
2019-05-20T01:01:55.780Z,16.63
2019-05-20T01:04:26.844Z,16.59
2019-05-20T01:06:57.851Z,16.64
2019-05-20T01:09:28.918Z,16.73
2019-05-20T01:11:59.652Z,16.72
2019-05-20T01:14:30.367Z,16.70
2019-05-20T01:17:01.069Z,16.76
2019-05-20T01:19:32.162Z,16.76
2019-05-20T01:22:02.817Z,16.79
2019-05-20T01:24:33.502Z,16.86
2019-05-20T01:27:05.156Z,16.73
2019-05-20T01:29:36.306Z,16.84
2019-05-20T01:32:07.266Z,16.81
2019-05-20T01:34:38.379Z,16.78
2019-05-20T01:37:09.456Z,16.66
2019-05-20T01:39:40.211Z,16.63
2019-05-20T01:42:11.208Z,16.67
2019-05-20T01:44:42.261Z,16.62
2019-05-20T01:47:13.566Z,16.63
2019-05-20T01:49:45.671Z,16.67
2019-05-20T01:52:16.423Z,16.63
2019-05-20T01:54:47.424Z,16.54
2019-05-20T01:57:18.105Z,16.53
2019-05-20T01:59:49.091Z,16.55
2019-05-20T02:02:19.784Z,16.55
2019-05-20T02:04:50.806Z,16.49
2019-05-20T02:07:21.539Z,16.40
2019-05-20T02:09:52.476Z,16.38
2019-05-20T02:12:23.228Z,16.40
2019-05-20T02:15:04.558Z,16.38
2019-05-20T02:17:35.603Z,16.49
2019-05-20T02:20:09.835Z,16.29
2019-05-20T02:22:40.533Z,16.26
2019-05-20T02:25:12.614Z,16.21
2019-05-20T02:27:43.265Z,16.17
2019-05-20T02:30:14.586Z,16.12
2019-05-20T02:32:45.268Z,15.99
2019-05-20T02:35:15.932Z,15.93
2019-05-20T02:37:46.607Z,15.83
2019-05-20T02:40:17.686Z,15.97
2019-05-20T02:42:48.401Z,15.92
2019-05-20T02:45:20.004Z,15.94
2019-05-20T02:47:50.711Z,15.95
2019-05-20T02:50:21.461Z,15.84
2019-05-20T02:52:52.154Z,15.89
2019-05-20T02:55:22.823Z,15.82
2019-05-20T02:57:53.870Z,15.87
2019-05-20T03:00:24.559Z,15.84
2019-05-20T03:02:55.415Z,15.72
2019-05-20T03:05:26.492Z,15.79
2019-05-20T03:07:57.521Z,15.77
2019-05-20T03:10:28.178Z,15.83
2019-05-20T03:12:59.211Z,15.82
2019-05-20T03:15:30.351Z,15.80
2019-05-20T03:18:01.126Z,15.88
2019-05-20T03:20:33.231Z,15.76
2019-05-20T03:23:04.269Z,15.72
2019-05-20T03:25:36.028Z,15.60
2019-05-20T03:28:06.730Z,15.34
2019-05-20T03:30:37.826Z,15.33
2019-05-20T03:33:08.950Z,15.30
2019-05-20T03:35:39.630Z,15.37
2019-05-20T03:38:10.410Z,15.31
2019-05-20T03:40:41.076Z,15.29
2019-05-20T03:43:11.768Z,15.43
2019-05-20T03:45:43.158Z,15.38
2019-05-20T03:48:14.206Z,15.28
2019-05-20T03:50:44.967Z,15.20
2019-05-20T03:53:15.644Z,15.32
2019-05-20T03:55:46.683Z,15.37
2019-05-20T03:58:17.377Z,15.39
2019-05-20T04:00:49.391Z,15.51
2019-05-20T04:03:20.049Z,15.66
2019-05-20T04:05:51.022Z,15.84
2019-05-20T04:08:21.698Z,15.84
2019-05-20T04:10:52.416Z,15.92
2019-05-20T04:13:23.410Z,15.99
2019-05-20T04:15:54.090Z,15.99
2019-05-20T04:18:24.830Z,16.19
2019-05-20T04:20:55.868Z,16.25
2019-05-20T04:23:27.040Z,16.43
2019-05-20T04:25:58.028Z,16.59
2019-05-20T04:28:29.127Z,16.72
2019-05-20T04:31:00.218Z,16.81
2019-05-20T04:33:30.920Z,16.76
2019-05-20T04:36:01.586Z,16.81
2019-05-20T04:38:32.302Z,16.68
2019-05-20T04:41:02.951Z,16.66
2019-05-20T04:43:33.993Z,16.68
2019-05-20T04:46:04.923Z,16.73
2019-05-20T04:48:35.623Z,16.82
2019-05-20T04:51:06.694Z,16.93
2019-05-20T04:53:37.381Z,17.21
2019-05-20T04:56:08.351Z,17.42
2019-05-20T04:58:39.031Z,17.35
2019-05-20T05:01:09.728Z,17.43
2019-05-20T05:03:41.109Z,17.43
2019-05-20T05:06:11.879Z,17.38
2019-05-20T05:08:42.841Z,17.41
2019-05-20T05:11:13.623Z,17.37
2019-05-20T05:13:44.613Z,17.44
2019-05-20T05:16:15.415Z,17.61
2019-05-20T05:18:46.494Z,17.60
2019-05-20T05:21:17.422Z,17.50
2019-05-20T05:23:58.729Z,17.54
2019-05-20T05:26:20.938Z,17.60
2019-05-20T05:28:51.784Z,17.56
2019-05-20T05:31:22.600Z,17.55
2019-05-20T05:33:54.442Z,17.61
2019-05-20T05:36:25.349Z,17.60
2019-05-20T05:38:56.361Z,17.65
2019-05-20T05:41:27.127Z,17.69
2019-05-20T05:43:58.115Z,17.73
2019-05-20T05:46:30.068Z,17.87
2019-05-20T05:49:01.719Z,18.21
2019-05-20T05:51:32.413Z,18.64
2019-05-20T05:54:03.405Z,18.92
2019-05-20T05:56:34.376Z,19.21
2019-05-20T05:59:05.320Z,19.69
2019-05-20T06:01:36.000Z,19.83
2019-05-20T06:04:06.977Z,20.67
2019-05-20T06:06:37.718Z,21.37
2019-05-20T06:09:09.046Z,21.27
2019-05-20T06:11:39.731Z,20.97
2019-05-20T06:14:10.429Z,20.23
2019-05-20T06:16:41.108Z,19.53
2019-05-20T06:19:11.803Z,19.45
2019-05-20T06:21:43.924Z,19.25
2019-05-20T06:24:15.115Z,19.21
2019-05-20T06:26:46.102Z,19.18
2019-05-20T06:29:17.774Z,19.29
2019-05-20T06:31:48.813Z,19.32
2019-05-20T06:34:19.710Z,19.33
2019-05-20T06:36:52.554Z,19.26
2019-05-20T06:39:23.609Z,19.17
2019-05-20T06:41:54.893Z,19.39
2019-05-20T06:44:25.958Z,19.77
2019-05-20T06:46:56.983Z,19.81
2019-05-20T06:49:28.033Z,19.96
2019-05-20T06:51:58.725Z,20.03
2019-05-20T06:54:29.425Z,20.00
2019-05-20T06:57:00.216Z,20.17
2019-05-20T06:59:30.878Z,20.13
2019-05-20T07:02:01.624Z,20.18
2019-05-20T07:04:32.716Z,20.34
2019-05-20T07:07:12.439Z,20.51
2019-05-20T07:09:35.781Z,20.58
2019-05-20T07:12:06.612Z,20.80
2019-05-20T07:14:37.319Z,21.10
2019-05-20T07:17:08.002Z,21.32
2019-05-20T07:19:38.700Z,21.43
2019-05-20T07:22:09.378Z,21.68
2019-05-20T07:24:40.102Z,21.54
2019-05-20T07:27:10.886Z,21.74
2019-05-20T07:29:41.910Z,21.70
2019-05-20T07:32:12.952Z,21.89
2019-05-20T07:34:43.987Z,21.82
2019-05-20T07:37:15.042Z,22.38
2019-05-20T07:39:46.075Z,22.55
2019-05-20T07:42:16.746Z,22.67
2019-05-20T07:44:47.753Z,22.60
2019-05-20T07:47:18.501Z,22.41
2019-05-20T07:49:51.089Z,22.42
2019-05-20T07:52:24.377Z,22.38
2019-05-20T07:54:58.083Z,22.47
2019-05-20T07:57:33.365Z,22.49
2019-05-20T08:00:06.005Z,22.71
2019-05-20T08:02:37.253Z,22.87
2019-05-20T08:05:10.050Z,22.80
2019-05-20T08:07:51.806Z,21.99
2019-05-20T08:10:13.948Z,22.11
2019-05-20T08:12:44.782Z,22.16
2019-05-20T08:15:17.437Z,21.84
2019-05-20T08:17:48.480Z,21.92
2019-05-20T08:20:20.663Z,21.71
2019-05-20T08:22:51.374Z,21.53
2019-05-20T08:25:22.531Z,21.53
2019-05-20T08:27:53.276Z,21.42
2019-05-20T08:30:37.109Z,20.95
2019-05-20T08:33:08.273Z,21.04
2019-05-20T08:35:39.131Z,21.13
2019-05-20T08:38:09.956Z,21.14
2019-05-20T08:40:42.404Z,21.19
2019-05-20T08:43:14.438Z,20.39
2019-05-20T08:45:45.185Z,20.50
2019-05-20T08:48:16.219Z,20.34
2019-05-20T08:50:47.307Z,20.65
2019-05-20T08:53:18.130Z,20.54
2019-05-20T08:55:48.913Z,20.48
2019-05-20T08:58:19.658Z,20.49
2019-05-20T09:00:50.748Z,20.62
2019-05-20T09:03:21.608Z,20.67
2019-05-20T09:05:52.554Z,20.58
2019-05-20T09:08:23.389Z,20.51
2019-05-20T09:10:54.059Z,20.33
2019-05-20T09:13:24.768Z,20.70
2019-05-20T09:15:56.406Z,20.78
2019-05-20T09:18:27.184Z,20.81
2019-05-20T09:20:58.176Z,21.05
2019-05-20T09:23:28.987Z,21.04
2019-05-20T09:26:00.295Z,20.98
2019-05-20T09:28:31.422Z,21.02
2019-05-20T09:31:02.715Z,21.07
2019-05-20T09:33:35.246Z,21.33
2019-05-20T09:36:06.447Z,21.62
2019-05-20T09:38:37.281Z,21.76
2019-05-20T09:41:08.476Z,21.75
2019-05-20T09:43:39.262Z,21.58
2019-05-20T09:46:10.340Z,21.67
2019-05-20T09:48:41.070Z,21.73
2019-05-20T09:51:11.796Z,21.47
2019-05-20T09:53:42.603Z,21.44
2019-05-20T09:56:13.347Z,21.50
2019-05-20T09:58:44.137Z,21.34
2019-05-20T10:01:15.932Z,21.34
2019-05-20T10:03:47.337Z,21.40
2019-05-20T10:06:18.390Z,21.54
2019-05-20T10:08:49.077Z,21.39
2019-05-20T10:11:19.829Z,21.45
2019-05-20T10:13:50.957Z,21.51
2019-05-20T10:16:21.866Z,21.41
2019-05-20T10:18:55.281Z,21.37
2019-05-20T10:21:24.981Z,21.14
2019-05-20T10:23:55.785Z,21.18
2019-05-20T10:26:26.465Z,21.15
2019-05-20T10:28:57.271Z,21.12
2019-05-20T10:31:27.982Z,20.91
2019-05-20T10:33:58.633Z,20.91
2019-05-20T10:36:29.693Z,20.75
2019-05-20T10:39:01.438Z,20.82
2019-05-20T10:41:34.118Z,20.81
2019-05-20T10:44:05.079Z,20.78
2019-05-20T10:46:36.193Z,20.70
2019-05-20T10:49:07.291Z,20.67
2019-05-20T10:51:38.317Z,20.68
2019-05-20T10:54:09.061Z,20.63
2019-05-20T10:56:39.787Z,20.62
2019-05-20T10:59:12.142Z,20.50
2019-05-20T11:01:42.861Z,20.40
2019-05-20T11:04:13.896Z,20.34
2019-05-20T11:06:44.708Z,20.37
2019-05-20T11:09:15.387Z,20.32
2019-05-20T11:11:46.546Z,20.33
2019-05-20T11:14:17.217Z,20.22
2019-05-20T11:16:47.928Z,20.15
2019-05-20T11:19:18.951Z,20.05
2019-05-20T11:21:49.992Z,19.96
2019-05-20T11:24:21.008Z,19.83
2019-05-20T11:26:51.987Z,19.66
2019-05-20T11:29:23.108Z,19.53
2019-05-20T11:31:54.751Z,19.51
2019-05-20T11:34:25.914Z,19.52
2019-05-20T11:36:56.871Z,19.54
2019-05-20T11:39:33.133Z,19.76
2019-05-20T11:41:59.949Z,19.85
2019-05-20T11:44:31.085Z,19.93
2019-05-20T11:47:01.785Z,19.93
2019-05-20T11:49:33.105Z,19.82
2019-05-20T11:52:04.261Z,19.93
2019-05-20T11:54:35.158Z,20.07
2019-05-20T11:57:06.185Z,20.09
2019-05-20T11:59:37.210Z,19.98
2019-05-20T12:02:08.013Z,19.96
2019-05-20T12:04:39.161Z,20.05
2019-05-20T12:07:10.977Z,20.10
2019-05-20T12:09:49.799Z,20.15
2019-05-20T12:12:14.182Z,20.09
2019-05-20T12:14:44.977Z,20.03
2019-05-20T12:17:16.038Z,19.94
2019-05-20T12:19:46.742Z,19.84
2019-05-20T12:22:17.565Z,19.74
2019-05-20T12:24:48.257Z,19.64
2019-05-20T12:27:18.927Z,19.73
2019-05-20T12:29:49.659Z,19.72
2019-05-20T12:32:20.340Z,19.75
2019-05-20T12:34:51.381Z,19.79
2019-05-20T12:37:22.056Z,19.78
2019-05-20T12:40:06.417Z,19.73
2019-05-20T12:42:25.159Z,19.78
2019-05-20T12:44:55.882Z,19.87
2019-05-20T12:47:27.037Z,19.98
2019-05-20T12:49:57.745Z,19.98
2019-05-20T12:52:28.442Z,19.83
2019-05-20T12:55:08.027Z,19.74
2019-05-20T12:57:31.988Z,19.55
2019-05-20T13:00:02.801Z,19.57
2019-05-20T13:02:34.973Z,19.43
2019-05-20T13:05:08.145Z,19.31
2019-05-20T13:07:39.035Z,19.19
2019-05-20T13:10:28.209Z,19.03
2019-05-20T13:12:44.255Z,19.07
2019-05-20T13:15:17.113Z,19.08
2019-05-20T13:17:47.868Z,19.13
2019-05-20T13:20:19.112Z,18.83
2019-05-20T13:22:50.029Z,18.86
2019-05-20T13:25:20.898Z,18.80
2019-05-20T13:27:51.612Z,18.77
2019-05-20T13:30:24.128Z,18.67
2019-05-20T13:32:54.855Z,18.75
2019-05-20T13:35:26.002Z,18.70
2019-05-20T13:37:57.157Z,18.77
2019-05-20T13:40:45.080Z,18.85
2019-05-20T13:43:00.329Z,19.02
2019-05-20T13:45:31.499Z,19.22
2019-05-20T13:48:02.192Z,19.07
2019-05-20T13:50:33.510Z,19.08
2019-05-20T13:53:04.256Z,19.15
2019-05-20T13:55:35.341Z,19.04
2019-05-20T13:58:06.101Z,19.14
2019-05-20T14:00:37.110Z,19.24
2019-05-20T14:03:07.858Z,19.12
2019-05-20T14:05:38.950Z,19.01
2019-05-20T14:08:09.785Z,18.83
2019-05-20T14:10:40.611Z,18.40
2019-05-20T14:13:11.973Z,17.76
2019-05-20T14:15:43.232Z,17.17
2019-05-20T14:18:14.390Z,16.41
2019-05-20T14:20:45.093Z,15.87
2019-05-20T14:23:16.243Z,15.43
2019-05-20T14:25:47.435Z,15.11
2019-05-20T14:28:18.123Z,15.05
2019-05-20T14:30:49.237Z,15.01
2019-05-20T14:33:20.268Z,14.94
2019-05-20T14:35:50.951Z,14.84
2019-05-20T14:38:21.995Z,14.83
2019-05-20T14:40:52.854Z,14.71
2019-05-20T14:43:23.590Z,14.70
2019-05-20T14:45:54.314Z,14.59
2019-05-20T14:48:25.054Z,14.62
2019-05-20T14:50:55.726Z,14.53
2019-05-20T14:53:26.533Z,14.53
2019-05-20T14:55:57.240Z,14.63
2019-05-20T14:58:27.900Z,14.65
2019-05-20T15:00:58.622Z,14.81
2019-05-20T15:03:29.356Z,14.88
2019-05-20T15:06:00.412Z,14.90
2019-05-20T15:08:34.322Z,14.90
2019-05-20T15:11:03.842Z,14.98
2019-05-20T15:13:35.128Z,15.02
2019-05-20T15:16:06.220Z,14.95
2019-05-20T15:18:37.249Z,14.92
2019-05-20T15:21:08.398Z,14.91
2019-05-20T15:23:39.539Z,14.93
2019-05-20T15:26:10.589Z,14.96
2019-05-20T15:28:41.251Z,14.98
2019-05-20T15:31:12.243Z,15.03
2019-05-20T15:33:42.974Z,15.07
2019-05-20T15:36:14.071Z,15.08
2019-05-20T15:38:44.845Z,15.18
2019-05-20T15:41:15.544Z,15.11
2019-05-20T15:43:46.282Z,15.19
2019-05-20T15:46:16.955Z,15.20
2019-05-20T15:48:47.653Z,15.24
2019-05-20T15:51:18.618Z,15.37
2019-05-20T15:53:50.720Z,15.52
2019-05-20T15:56:21.774Z,15.71
2019-05-20T15:58:53.697Z,15.74
2019-05-20T16:01:24.664Z,15.78
2019-05-20T16:03:55.344Z,15.86
2019-05-20T16:06:26.409Z,15.86
2019-05-20T16:08:57.558Z,15.99
2019-05-20T16:11:28.435Z,16.03
2019-05-20T16:13:59.630Z,15.99
2019-05-20T16:16:30.334Z,16.01
2019-05-20T16:19:00.987Z,16.14
2019-05-20T16:21:32.030Z,16.19
2019-05-20T16:24:02.768Z,16.23
2019-05-20T16:26:34.659Z,16.24
2019-05-20T16:29:05.612Z,16.27
2019-05-20T16:31:36.502Z,16.36
2019-05-20T16:34:07.568Z,16.37
2019-05-20T16:36:38.515Z,16.35
2019-05-20T16:39:09.278Z,16.25
2019-05-20T16:41:40.253Z,16.19
2019-05-20T16:44:11.399Z,16.19
2019-05-20T16:46:42.436Z,16.17
2019-05-20T16:49:13.824Z,16.19
2019-05-20T16:51:44.835Z,16.20
2019-05-20T16:54:15.880Z,16.24
2019-05-20T16:56:46.554Z,16.21
2019-05-20T16:59:17.617Z,16.31
2019-05-20T17:01:48.549Z,16.36
2019-05-20T17:04:19.702Z,16.37
2019-05-20T17:06:50.752Z,16.36
2019-05-20T17:09:22.041Z,16.35
2019-05-20T17:11:52.803Z,16.39
2019-05-20T17:14:23.474Z,16.37
2019-05-20T17:16:54.247Z,16.34
2019-05-20T17:19:25.229Z,16.37
2019-05-20T17:21:55.946Z,16.36
2019-05-20T17:24:26.708Z,16.38
2019-05-20T17:26:57.410Z,16.40
2019-05-20T17:29:28.551Z,16.41
2019-05-20T17:32:00.640Z,16.38
2019-05-20T17:34:32.701Z,16.36
2019-05-20T17:37:03.639Z,16.40
2019-05-20T17:39:34.368Z,16.44
2019-05-20T17:42:05.752Z,16.50
2019-05-20T17:44:38.044Z,16.62
2019-05-20T17:47:08.974Z,16.79
2019-05-20T17:49:39.736Z,16.83
2019-05-20T17:52:10.503Z,16.87
2019-05-20T17:54:44.023Z,16.92
2019-05-20T17:57:14.844Z,16.94
2019-05-20T17:59:45.879Z,17.03
2019-05-20T18:02:17.232Z,17.14
2019-05-20T18:04:48.270Z,17.08
2019-05-20T18:07:19.294Z,17.00
2019-05-20T18:09:52.287Z,16.93
2019-05-20T18:12:24.340Z,16.85
2019-05-20T18:14:56.987Z,16.84
2019-05-20T18:17:27.658Z,16.78
2019-05-20T18:19:58.725Z,16.69
2019-05-20T18:22:29.540Z,16.59
2019-05-20T18:25:00.472Z,16.51
2019-05-20T18:27:31.737Z,16.43
2019-05-20T18:30:03.720Z,16.37
2019-05-20T18:32:34.710Z,16.27
2019-05-20T18:35:07.554Z,16.23
2019-05-20T18:37:38.635Z,16.19
2019-05-20T18:40:14.400Z,16.08
2019-05-20T18:42:43.773Z,15.99
2019-05-20T18:45:15.626Z,15.90
2019-05-20T18:47:46.602Z,15.79
2019-05-20T18:50:17.791Z,15.71
2019-05-20T18:52:48.965Z,15.69
2019-05-20T18:55:20.024Z,15.65
2019-05-20T18:57:51.629Z,15.61
2019-05-20T19:00:24.445Z,15.55
2019-05-20T19:02:55.402Z,15.52
2019-05-20T19:05:26.334Z,15.49
2019-05-20T19:07:57.474Z,15.42
2019-05-20T19:10:29.463Z,15.39
2019-05-20T19:13:00.680Z,15.29
2019-05-20T19:15:31.712Z,15.23
2019-05-20T19:18:03.711Z,15.18
2019-05-20T19:20:34.457Z,15.13
2019-05-20T19:23:05.166Z,15.10
2019-05-20T19:25:38.057Z,15.10
2019-05-20T19:28:09.087Z,15.04
2019-05-20T19:30:39.905Z,15.01
2019-05-20T19:33:10.932Z,14.92
2019-05-20T19:35:42.069Z,14.89
2019-05-20T19:38:13.245Z,14.82
2019-05-20T19:40:45.615Z,14.79
2019-05-20T19:43:16.373Z,14.75
2019-05-20T19:45:47.476Z,14.71
2019-05-20T19:48:18.162Z,14.68
2019-05-20T19:50:49.238Z,14.62
2019-05-20T19:53:20.412Z,14.61
2019-05-20T19:55:51.422Z,14.60
2019-05-20T19:58:22.166Z,14.55
2019-05-20T20:00:56.565Z,14.54
2019-05-20T20:03:25.640Z,14.52
2019-05-20T20:05:56.629Z,14.56
2019-05-20T20:08:27.377Z,14.52
2019-05-20T20:10:58.423Z,14.50
2019-05-20T20:13:29.442Z,14.48
2019-05-20T20:16:00.138Z,14.47
2019-05-20T20:18:31.217Z,14.40
2019-05-20T20:21:02.009Z,14.34
2019-05-20T20:23:33.018Z,14.32
2019-05-20T20:26:03.753Z,14.22
2019-05-20T20:28:34.934Z,14.16
2019-05-20T20:31:05.827Z,14.16
2019-05-20T20:33:36.722Z,14.07
2019-05-20T20:36:08.600Z,14.04
2019-05-20T20:38:39.751Z,14.06
2019-05-20T20:41:10.787Z,14.01
2019-05-20T20:43:42.192Z,13.99
2019-05-20T20:46:14.036Z,14.05
2019-05-20T20:48:44.898Z,13.98
2019-05-20T20:53:43.114Z,13.91
2019-05-20T20:56:24.634Z,13.80
2019-05-20T20:58:46.411Z,13.78
2019-05-20T21:01:17.659Z,13.75
2019-05-20T21:03:48.732Z,13.78
2019-05-20T21:06:19.886Z,13.75
2019-05-20T21:08:50.719Z,13.71
2019-05-20T21:11:22.139Z,13.65
2019-05-20T21:13:53.229Z,13.64
2019-05-20T21:16:24.095Z,13.66
2019-05-20T21:18:54.890Z,13.60
2019-05-20T21:21:25.901Z,13.56
2019-05-20T21:23:56.611Z,13.58
2019-05-20T21:26:28.405Z,13.59
2019-05-20T21:28:59.198Z,13.53
2019-05-20T21:31:31.444Z,13.49
2019-05-20T21:34:02.523Z,13.48
2019-05-20T21:36:46.540Z,13.25
2019-05-20T21:39:07.470Z,13.41
2019-05-20T21:41:38.663Z,13.41
2019-05-20T21:44:09.464Z,13.38
2019-05-20T21:46:40.627Z,13.33
2019-05-20T21:49:12.323Z,13.25
2019-05-20T21:51:43.078Z,13.28
2019-05-20T21:54:14.140Z,13.26
2019-05-20T21:56:44.896Z,13.21
2019-05-20T21:59:15.691Z,13.23
2019-05-20T22:01:46.703Z,13.22
2019-05-20T22:04:17.784Z,13.19
2019-05-20T22:06:48.473Z,13.16
2019-05-20T22:09:19.170Z,13.11
2019-05-20T22:11:49.945Z,13.13
2019-05-20T22:14:20.902Z,13.11
2019-05-20T22:16:51.637Z,13.11
2019-05-20T22:19:22.832Z,13.11
2019-05-20T22:21:57.964Z,13.11
2019-05-20T22:24:29.028Z,13.10
2019-05-20T22:27:00.107Z,13.08
2019-05-20T22:29:30.822Z,13.05
2019-05-20T22:32:01.840Z,13.05
2019-05-20T22:34:32.894Z,13.04
2019-05-20T22:37:04.001Z,13.04
2019-05-20T22:39:35.027Z,13.04
2019-05-20T22:42:05.976Z,12.99
2019-05-20T22:44:37.052Z,12.95
2019-05-20T22:47:07.775Z,12.94
2019-05-20T22:49:38.864Z,12.96
2019-05-20T22:52:09.855Z,12.92
2019-05-20T22:54:40.937Z,12.93
2019-05-20T22:57:13.112Z,12.92
2019-05-20T22:59:44.120Z,12.86
2019-05-20T23:02:15.163Z,12.86
2019-05-20T23:04:46.233Z,12.93
2019-05-20T23:07:17.136Z,12.98
2019-05-20T23:09:48.264Z,12.99
2019-05-20T23:12:19.340Z,13.00
2019-05-20T23:14:50.036Z,12.99
2019-05-20T23:17:21.040Z,13.02
2019-05-20T23:19:51.785Z,13.00
2019-05-20T23:22:22.770Z,13.00
2019-05-20T23:24:53.518Z,13.02
2019-05-20T23:27:24.521Z,13.05
2019-05-20T23:29:55.211Z,13.02
2019-05-20T23:32:25.879Z,12.98
2019-05-20T23:34:56.843Z,12.94
2019-05-20T23:37:28.275Z,12.95
2019-05-20T23:39:59.017Z,12.96
2019-05-20T23:42:30.088Z,12.98
2019-05-20T23:45:01.122Z,12.95
2019-05-20T23:47:31.906Z,12.88
2019-05-20T23:50:02.670Z,12.82
2019-05-20T23:52:33.413Z,12.83
2019-05-20T23:55:05.833Z,12.80
2019-05-20T23:57:36.574Z,12.83
